Time;durP1;ratioP1;P1;durP2;ratioP2;P2;SDS_P1;SDS_P2;PMS_P1;PMS_P2;Temp;Humidity;BMP_temperature;BMP_pressure;BME280_temperature;BME280_humidity;BME280_pressure;Samples;Min_cycle;Max_cycle;Signal;HPM_P1;HPM_P2
2024/01/25 00:00:41;;;;;;;3.00;1.00;;;;;;;4.41;89.11;96412.70;108822;1273;22544;-79
2024/01/25 00:03:35;;;;;;;3.80;1.30;;;;;;;4.45;88.81;96420.77;108704;1266;124209;-79
2024/01/25 00:06:09;;;;;;;5.00;1.30;;;;;;;4.42;88.72;96417.44;108790;1267;25240;-79
2024/01/25 00:08:40;;;;;;;4.10;1.30;;;;;;;4.37;88.88;96420.27;108872;1273;22517;-80
2024/01/25 00:11:10;;;;;;;4.50;1.40;;;;;;;4.41;89.19;96427.02;108811;1272;22528;-80
2024/01/25 00:13:42;;;;;;;4.50;1.00;;;;;;;4.47;88.60;96427.98;108818;1266;25424;-80
2024/01/25 00:16:15;;;;;;;8.80;2.10;;;;;;;4.50;88.67;96423.88;108836;1269;23812;-80
2024/01/25 00:18:51;;;;;;;5.10;1.40;;;;;;;4.53;88.14;96415.80;108782;1273;22541;-80
2024/01/25 00:21:22;;;;;;;7.50;1.70;;;;;;;4.56;87.97;96413.83;108829;1273;22518;-80
2024/01/25 00:23:55;;;;;;;6.00;1.60;;;;;;;4.61;87.83;96404.89;108802;1272;22567;-80
2024/01/25 00:26:28;;;;;;;8.20;1.50;;;;;;;4.68;87.31;96398.42;108827;1266;22527;-80
2024/01/25 00:29:04;;;;;;;5.10;1.40;;;;;;;4.69;86.88;96394.81;108848;1273;24323;-80
2024/01/25 00:31:36;;;;;;;9.10;1.30;;;;;;;4.71;86.57;96397.83;108802;1269;22524;-80
2024/01/25 00:34:08;;;;;;;6.90;2.10;;;;;;;4.72;86.34;96393.52;108848;1273;25259;-80
2024/01/25 00:36:40;;;;;;;6.40;1.80;;;;;;;4.71;86.18;96392.98;108832;1273;22523;-80
2024/01/25 00:39:14;;;;;;;4.50;1.50;;;;;;;4.73;86.00;96386.02;108870;1273;22634;-80
2024/01/25 00:41:52;;;;;;;6.50;1.90;;;;;;;4.80;85.71;96387.00;108816;1266;24076;-80
2024/01/25 00:44:27;;;;;;;5.60;1.40;;;;;;;4.83;85.17;96389.30;108829;1273;22579;-80
2024/01/25 00:47:01;;;;;;;8.80;1.70;;;;;;;4.92;84.67;96382.45;108799;1270;22526;-80
2024/01/25 00:49:33;;;;;;;3.90;0.90;;;;;;;5.01;83.82;96381.42;108776;1273;22530;-80
2024/01/25 00:52:06;;;;;;;4.20;1.20;;;;;;;5.09;82.72;96388.30;108789;1270;26555;-80
2024/01/25 00:54:42;;;;;;;4.60;1.40;;;;;;;5.18;81.33;96398.92;108851;1273;22540;-80
2024/01/25 00:57:15;;;;;;;7.50;1.80;;;;;;;5.28;80.39;96408.02;108761;1266;24168;-80
2024/01/25 00:59:53;;;;;;;3.90;1.20;;;;;;;5.34;79.70;96402.87;108826;1269;25630;-80
2024/01/25 01:02:30;;;;;;;4.80;1.70;;;;;;;5.33;79.83;96405.11;108822;1272;22627;-80
2024/01/25 01:05:03;;;;;;;4.90;1.30;;;;;;;5.34;79.34;96406.39;108815;1273;22590;-80
2024/01/25 01:07:34;;;;;;;5.70;1.40;;;;;;;5.34;79.77;96401.88;108848;1270;22803;-80
2024/01/25 01:10:08;;;;;;;3.20;1.20;;;;;;;5.30;79.64;96404.66;108801;1266;22554;-80
2024/01/25 01:12:40;;;;;;;5.10;1.20;;;;;;;5.27;79.81;96406.64;108882;1272;22514;-80
2024/01/25 01:15:12;;;;;;;8.10;2.10;;;;;;;5.28;79.24;96391.72;108785;1273;25374;-80
2024/01/25 01:17:42;;;;;;;5.10;1.20;;;;;;;5.33;78.63;96401.22;108821;1272;25619;-80
2024/01/25 01:20:17;;;;;;;5.10;0.80;;;;;;;5.34;78.80;96395.40;108812;1266;22654;-79
2024/01/25 01:22:48;;;;;;;3.40;0.80;;;;;;;5.34;78.61;96403.87;108789;1251;22838;-80
2024/01/25 01:25:19;;;;;;;3.40;1.20;;;;;;;5.35;78.20;96403.15;108779;1272;22594;-80
2024/01/25 01:27:51;;;;;;;4.60;1.10;;;;;;;5.43;76.93;96407.62;108853;1272;24912;-80
2024/01/25 01:30:24;;;;;;;10.20;2.80;;;;;;;5.49;76.28;96403.14;108859;1272;25186;-79
2024/01/25 01:32:58;;;;;;;2.80;0.70;;;;;;;5.50;76.13;96406.01;108824;1272;22524;-80
2024/01/25 01:35:31;;;;;;;5.40;1.40;;;;;;;5.45;76.32;96390.77;108826;1266;23862;-80
2024/01/25 01:38:03;;;;;;;4.90;1.40;;;;;;;5.43;76.07;96392.85;108809;1265;22607;-80
2024/01/25 01:40:36;;;;;;;5.90;1.10;;;;;;;5.47;75.61;96378.89;108800;1272;23078;-80
2024/01/25 01:43:08;;;;;;;4.10;1.00;;;;;;;5.50;75.67;96380.30;108856;1266;22528;-80
2024/01/25 01:45:44;;;;;;;3.40;0.90;;;;;;;5.50;75.14;96376.19;108835;1273;25251;-80
2024/01/25 01:48:15;;;;;;;5.90;1.50;;;;;;;5.53;74.38;96375.22;108819;1272;22576;-80
2024/01/25 01:50:47;;;;;;;3.10;1.40;;;;;;;5.57;73.62;96391.91;108800;1272;24203;-80
2024/01/25 01:53:22;;;;;;;5.40;1.40;;;;;;;5.54;73.93;96388.47;108796;1272;24360;-79
2024/01/25 01:55:56;;;;;;;3.90;1.40;;;;;;;5.34;75.37;96414.80;108821;1272;22653;-79
2024/01/25 01:58:29;;;;;;;4.30;1.30;;;;;;;5.21;76.16;96407.38;108913;1272;24231;-79
2024/01/25 02:01:05;;;;;;;5.20;1.60;;;;;;;5.11;76.85;96397.61;108820;1266;22533;-79
2024/01/25 02:03:39;;;;;;;4.10;1.10;;;;;;;5.04;77.10;96405.35;108873;1269;22571;-79
2024/01/25 02:06:11;;;;;;;5.60;1.70;;;;;;;4.97;77.69;96398.00;108758;1257;22599;-80
2024/01/25 02:08:42;;;;;;;4.90;1.40;;;;;;;4.95;78.09;96380.27;108845;1266;25229;-80
2024/01/25 02:11:17;;;;;;;6.20;1.80;;;;;;;4.92;78.64;96384.09;108762;1266;25386;-80
2024/01/25 02:13:51;;;;;;;6.90;1.50;;;;;;;4.87;78.88;96377.87;108819;1269;24196;-80
2024/01/25 02:16:23;;;;;;;5.20;1.20;;;;;;;4.82;79.16;96382.04;108809;1272;25006;-80
2024/01/25 02:18:57;;;;;;;5.40;1.50;;;;;;;4.78;79.19;96386.23;108816;1272;22986;-80
2024/01/25 02:21:31;;;;;;;11.10;2.20;;;;;;;4.75;79.63;96370.87;108764;1272;25342;-80
2024/01/25 02:24:05;;;;;;;5.40;1.30;;;;;;;4.76;79.60;96376.81;108809;1269;24360;-80
2024/01/25 02:26:38;;;;;;;3.40;1.60;;;;;;;4.77;79.59;96370.77;108836;1272;25258;-80
2024/01/25 02:29:09;;;;;;;5.90;1.30;;;;;;;4.76;79.67;96378.48;108801;1272;22543;-80
2024/01/25 02:31:40;;;;;;;5.50;1.10;;;;;;;4.74;79.59;96366.44;108801;1272;22531;-80
2024/01/25 02:34:11;;;;;;;3.60;1.40;;;;;;;4.76;79.18;96350.96;108812;1272;22779;-80
2024/01/25 02:36:42;;;;;;;6.60;1.40;;;;;;;4.76;79.08;96354.86;108822;1267;22550;-80
2024/01/25 02:39:13;;;;;;;6.40;1.90;;;;;;;4.73;79.03;96375.05;108789;1266;22531;-80
2024/01/25 02:41:44;;;;;;;5.60;1.40;;;;;;;4.72;78.77;96373.67;108794;1250;22690;-80
2024/01/25 02:44:16;;;;;;;2.60;0.80;;;;;;;4.72;78.70;96352.23;108832;1273;22531;-80
2024/01/25 02:46:50;;;;;;;3.10;1.10;;;;;;;4.73;78.72;96356.61;108782;1266;22534;-80
2024/01/25 02:49:21;;;;;;;4.00;1.40;;;;;;;4.72;78.36;96351.05;108812;1266;22567;-80
2024/01/25 02:51:53;;;;;;;3.30;1.20;;;;;;;4.72;78.13;96344.27;108762;1266;22524;-80
2024/01/25 02:54:27;;;;;;;4.80;1.20;;;;;;;4.73;78.35;96346.90;108787;1269;24163;-80
2024/01/25 02:57:00;;;;;;;5.10;1.20;;;;;;;4.76;78.07;96361.20;108825;1266;22593;-80
2024/01/25 02:59:31;;;;;;;6.90;1.60;;;;;;;4.79;77.48;96354.73;108783;1272;22517;-80
2024/01/25 03:02:02;;;;;;;4.60;0.90;;;;;;;4.83;77.02;96357.24;108744;1266;23737;-80
2024/01/25 03:04:35;;;;;;;10.30;1.20;;;;;;;4.85;76.80;96360.42;108803;1272;23804;-80
2024/01/25 03:07:07;;;;;;;7.10;1.30;;;;;;;4.91;76.12;96362.77;108779;1265;24202;-80
2024/01/25 03:09:38;;;;;;;7.80;2.00;;;;;;;4.95;75.24;96358.84;108803;1272;23989;-80
2024/01/25 03:12:11;;;;;;;5.40;1.10;;;;;;;5.03;74.19;96356.39;108786;1272;25467;-80
2024/01/25 03:14:42;;;;;;;5.40;1.50;;;;;;;5.07;74.00;96369.72;108799;1266;22523;-80
2024/01/25 03:17:13;;;;;;;3.10;1.20;;;;;;;5.06;74.19;96363.34;108831;1272;22521;-80
2024/01/25 03:19:47;;;;;;;4.50;1.60;;;;;;;5.04;74.01;96379.61;108823;1266;24130;-80
2024/01/25 03:22:22;;;;;;;4.60;1.40;;;;;;;5.01;74.02;96368.02;108813;1273;22510;-80
2024/01/25 03:24:53;;;;;;;6.10;1.20;;;;;;;5.03;73.39;96369.94;108817;1273;22514;-80
2024/01/25 03:27:26;;;;;;;9.50;1.40;;;;;;;5.04;73.17;96366.11;108812;1273;22576;-80
2024/01/25 03:30:00;;;;;;;6.90;1.30;;;;;;;5.05;73.16;96382.24;108795;1269;23823;-80
2024/01/25 03:32:31;;;;;;;5.50;1.60;;;;;;;5.06;72.79;96380.79;108776;1273;24030;-80
2024/01/25 03:35:04;;;;;;;4.80;1.20;;;;;;;5.05;72.69;96373.73;108813;1273;25620;-80
2024/01/25 03:37:37;;;;;;;8.40;1.60;;;;;;;5.06;72.23;96375.27;108806;1272;22516;-80
2024/01/25 03:40:18;;;;;;;2.60;0.80;;;;;;;5.10;71.18;96363.65;108800;1266;22527;-79
2024/01/25 03:42:50;;;;;;;4.50;1.30;;;;;;;5.15;70.17;96375.52;108786;1269;23821;-80
2024/01/25 03:45:21;;;;;;;2.20;0.80;;;;;;;5.18;70.12;96368.02;108805;1272;25256;-80
2024/01/25 03:47:52;;;;;;;3.40;1.20;;;;;;;5.17;69.83;96367.02;108838;1268;22546;-80
2024/01/25 03:50:23;;;;;;;7.40;1.20;;;;;;;5.14;70.00;96371.41;108775;1250;23691;-79
2024/01/25 03:52:54;;;;;;;6.90;1.70;;;;;;;5.13;69.62;96369.25;108826;1273;22572;-80
2024/01/25 03:55:30;;;;;;;4.90;1.10;;;;;;;5.13;69.91;96357.42;108779;1265;25403;-80
2024/01/25 03:58:01;;;;;;;4.40;1.30;;;;;;;5.14;69.13;96347.39;108804;1273;22520;-80
2024/01/25 04:00:35;;;;;;;9.00;1.50;;;;;;;5.14;69.16;96361.27;108788;1272;22631;-79
2024/01/25 04:03:10;;;;;;;4.70;1.30;;;;;;;5.14;68.24;96344.30;108795;1272;22523;-80
2024/01/25 04:05:44;;;;;;;4.10;1.20;;;;;;;5.21;67.59;96357.24;108867;1273;22525;-80
2024/01/25 04:08:15;;;;;;;4.20;1.20;;;;;;;5.18;67.72;96347.05;108763;1266;22531;-80
2024/01/25 04:10:51;;;;;;;4.00;1.50;;;;;;;5.17;67.64;96351.04;108758;1266;22539;-80
2024/01/25 04:13:24;;;;;;;5.20;1.30;;;;;;;5.13;67.80;96343.81;108794;1273;22570;-80
2024/01/25 04:15:55;;;;;;;4.30;1.20;;;;;;;5.07;67.92;96353.48;108748;1250;22526;-80
2024/01/25 04:18:28;;;;;;;6.60;1.50;;;;;;;5.07;67.42;96358.52;108782;1273;23266;-80
2024/01/25 04:21:01;;;;;;;5.00;1.60;;;;;;;5.09;66.67;96349.10;108771;1268;22897;-80
2024/01/25 04:23:34;;;;;;;6.30;1.60;;;;;;;5.14;65.96;96339.61;108793;1270;22517;-80
2024/01/25 04:26:06;;;;;;;6.10;1.90;;;;;;;5.14;65.81;96363.95;108803;1272;25294;-80
2024/01/25 04:28:36;;;;;;;9.20;2.30;;;;;;;5.12;65.87;96369.88;108800;1272;22517;-80
2024/01/25 04:31:09;;;;;;;8.60;2.40;;;;;;;5.14;64.99;96368.73;108764;1272;22524;-80
2024/01/25 04:33:42;;;;;;;5.90;1.60;;;;;;;5.23;64.58;96368.20;108774;1269;22786;-80
2024/01/25 04:36:12;;;;;;;7.50;2.30;;;;;;;5.25;64.40;96373.61;108771;1273;22931;-80
2024/01/25 04:38:46;;;;;;;8.60;1.60;;;;;;;5.26;64.30;96368.84;108792;1268;22580;-80
2024/01/25 04:41:20;;;;;;;9.60;2.30;;;;;;;5.28;63.93;96352.72;108785;1266;23275;-80
2024/01/25 04:43:53;;;;;;;10.30;2.80;;;;;;;5.35;63.39;96350.41;108802;1266;22532;-80
2024/01/25 04:46:34;;;;;;;9.30;1.90;;;;;;;5.39;63.06;96355.49;108827;1273;22532;-80
2024/01/25 04:49:06;;;;;;;3.90;0.80;;;;;;;5.36;63.52;96377.97;109059;1273;22519;-80
2024/01/25 04:51:40;;;;;;;2.80;1.20;;;;;;;5.29;64.02;96373.33;108790;1269;24145;-80
2024/01/25 04:54:12;;;;;;;8.30;1.50;;;;;;;5.26;64.13;96377.94;108822;1273;22510;-79
2024/01/25 04:56:46;;;;;;;6.50;1.00;;;;;;;5.24;64.14;96364.98;108838;1265;25960;-80
2024/01/25 04:59:20;;;;;;;9.20;1.90;;;;;;;5.25;63.82;96360.27;108824;1272;22535;-80
2024/01/25 05:01:51;;;;;;;8.00;1.80;;;;;;;5.25;64.06;96375.30;108790;1270;23286;-80
2024/01/25 05:04:25;;;;;;;6.80;1.90;;;;;;;5.24;63.92;96394.38;108808;1266;22511;-80
2024/01/25 05:06:59;;;;;;;5.60;1.10;;;;;;;5.28;63.48;96372.16;108835;1273;22805;-80
2024/01/25 05:09:29;;;;;;;4.60;1.70;;;;;;;5.28;63.49;96352.82;108800;1266;22523;-80
2024/01/25 05:12:01;;;;;;;7.50;1.60;;;;;;;5.30;63.79;96373.55;108795;1272;24651;-80
2024/01/25 05:14:37;;;;;;;3.80;1.10;;;;;;;5.27;64.27;96384.98;108857;1273;22926;-80
2024/01/25 05:17:08;;;;;;;9.70;1.60;;;;;;;5.23;64.59;96380.23;108810;1273;24264;-80
2024/01/25 05:19:39;;;;;;;5.30;1.50;;;;;;;5.22;64.81;96371.44;108780;1266;22647;-80
2024/01/25 05:22:10;;;;;;;4.90;1.10;;;;;;;5.19;65.13;96372.40;108764;1272;22529;-80
2024/01/25 05:24:41;;;;;;;2.80;1.40;;;;;;;5.13;65.35;96384.11;108813;1269;22520;-80
2024/01/25 05:27:12;;;;;;;5.20;1.40;;;;;;;5.06;65.95;96379.06;108786;1273;22683;-80
2024/01/25 05:29:48;;;;;;;4.80;1.30;;;;;;;5.05;66.11;96375.63;108826;1269;22524;-80
2024/01/25 05:32:22;;;;;;;5.90;1.50;;;;;;;5.03;66.65;96391.64;108795;1273;22517;-80
2024/01/25 05:34:56;;;;;;;9.30;1.20;;;;;;;5.02;67.36;96384.85;108808;1266;24212;-80
2024/01/25 05:37:30;;;;;;;3.80;1.30;;;;;;;4.97;68.22;96386.60;108931;1273;24222;-79
2024/01/25 05:40:09;;;;;;;6.80;2.00;;;;;;;4.91;68.76;96375.86;108901;1266;22552;-79
2024/01/25 05:42:42;;;;;;;2.70;1.00;;;;;;;4.90;68.70;96370.02;108858;1273;25915;-79
2024/01/25 05:45:13;;;;;;;4.90;1.20;;;;;;;4.90;68.96;96369.17;108892;1266;24085;-79
2024/01/25 05:47:44;;;;;;;4.30;1.00;;;;;;;4.90;69.12;96368.70;108833;1265;24314;-80
2024/01/25 05:50:16;;;;;;;5.40;1.30;;;;;;;4.90;69.09;96376.32;108793;1269;23220;-79
2024/01/25 05:52:47;;;;;;;3.80;1.40;;;;;;;4.90;69.14;96381.41;108789;1273;22520;-79
2024/01/25 05:55:18;;;;;;;5.80;1.40;;;;;;;4.89;69.32;96373.20;108809;1267;22514;-80
2024/01/25 05:57:51;;;;;;;6.70;1.40;;;;;;;4.91;69.22;96371.02;108846;1269;22524;-80
2024/01/25 06:00:23;;;;;;;7.70;1.60;;;;;;;4.90;69.29;96378.58;108793;1265;22984;-79
2024/01/25 06:02:55;;;;;;;4.90;1.60;;;;;;;4.88;69.46;96382.66;108839;1272;24324;-80
2024/01/25 06:05:26;;;;;;;4.30;1.40;;;;;;;4.88;69.46;96383.87;108900;1269;22511;-80
2024/01/25 06:07:57;;;;;;;7.70;1.80;;;;;;;4.91;69.28;96392.98;108859;1273;22515;-79
2024/01/25 06:10:29;;;;;;;9.00;1.50;;;;;;;4.94;68.94;96368.29;108866;1273;23862;-79
2024/01/25 06:12:59;;;;;;;4.00;0.90;;;;;;;4.99;68.77;96370.96;108893;1273;23342;-79
2024/01/25 06:15:34;;;;;;;2.80;1.00;;;;;;;4.99;68.57;96358.98;108895;1273;22513;-79
2024/01/25 06:18:07;;;;;;;6.60;1.80;;;;;;;4.94;69.04;96354.05;108874;1266;25495;-79
2024/01/25 06:20:38;;;;;;;6.50;1.20;;;;;;;4.90;69.18;96374.90;108823;1266;22574;-79
2024/01/25 06:23:14;;;;;;;5.40;2.10;;;;;;;4.88;69.48;96372.78;108922;1273;22513;-79
2024/01/25 06:25:47;;;;;;;5.60;2.10;;;;;;;4.88;69.66;96373.30;108871;1272;24202;-79
2024/01/25 06:28:19;;;;;;;6.50;1.70;;;;;;;4.85;70.03;96366.50;108852;1273;22555;-79
2024/01/25 06:30:54;;;;;;;5.60;1.20;;;;;;;4.82;70.34;96369.90;108890;1272;22525;-79
2024/01/25 06:33:28;;;;;;;3.30;1.20;;;;;;;4.79;70.65;96370.50;108851;1273;24180;-79
2024/01/25 06:36:02;;;;;;;3.00;0.90;;;;;;;4.80;70.58;96375.33;108879;1272;23887;-80
2024/01/25 06:38:35;;;;;;;7.90;1.70;;;;;;;4.84;70.57;96367.70;108876;1273;22837;-80
2024/01/25 06:41:06;;;;;;;6.70;1.50;;;;;;;4.84;70.53;96381.84;108820;1268;22609;-79
2024/01/25 06:43:40;;;;;;;6.90;2.00;;;;;;;4.83;70.96;96371.70;108865;1269;25024;-80
2024/01/25 06:46:11;;;;;;;4.70;1.30;;;;;;;4.78;71.59;96369.27;108853;1269;22977;-79
2024/01/25 06:48:43;;;;;;;5.90;2.40;;;;;;;4.71;71.89;96387.95;108860;1272;23695;-80
2024/01/25 06:51:14;;;;;;;7.60;1.60;;;;;;;4.65;72.59;96371.19;108868;1272;22523;-79
2024/01/25 06:53:47;;;;;;;7.00;2.10;;;;;;;4.63;72.88;96382.07;108861;1272;22989;-79
2024/01/25 06:56:18;;;;;;;4.70;1.80;;;;;;;4.64;72.96;96383.52;108859;1266;22514;-80
2024/01/25 06:58:52;;;;;;;7.70;1.40;;;;;;;4.64;73.20;96389.06;108832;1273;22515;-79
2024/01/25 07:01:27;;;;;;;3.10;0.80;;;;;;;4.63;73.32;96392.15;108895;1271;24060;-79
2024/01/25 07:04:01;;;;;;;5.60;1.30;;;;;;;4.58;73.45;96387.44;108932;1266;23684;-79
2024/01/25 07:06:32;;;;;;;3.50;1.20;;;;;;;4.45;74.79;96385.64;108984;1272;22615;-80
2024/01/25 07:09:04;;;;;;;6.40;2.10;;;;;;;4.35;76.23;96396.34;108908;1273;22535;-80
2024/01/25 07:11:38;;;;;;;6.90;1.50;;;;;;;4.29;76.84;96400.10;108911;1273;24155;-80
2024/01/25 07:14:09;;;;;;;9.50;1.90;;;;;;;4.23;77.18;96403.38;108878;1269;22531;-79
2024/01/25 07:16:44;;;;;;;2.10;1.20;;;;;;;4.19;78.31;96389.00;108885;1272;22978;-79
2024/01/25 07:19:16;;;;;;;4.00;1.20;;;;;;;4.15;78.78;96400.77;108884;1269;22535;-79
2024/01/25 07:21:49;;;;;;;6.50;1.60;;;;;;;4.14;78.68;96408.55;108891;1269;24216;-79
2024/01/25 07:24:21;;;;;;;9.80;1.50;;;;;;;4.12;78.95;96401.88;108861;1266;22536;-79
2024/01/25 07:26:57;;;;;;;9.80;1.60;;;;;;;4.13;79.46;96403.30;108851;1269;22517;-79
2024/01/25 07:29:30;;;;;;;3.10;0.80;;;;;;;4.13;79.85;96403.66;108873;1272;22572;-79
2024/01/25 07:32:07;;;;;;;5.40;1.80;;;;;;;4.12;79.48;96399.05;108955;1272;23810;-79
2024/01/25 07:34:38;;;;;;;3.20;1.40;;;;;;;4.12;80.05;96393.59;108921;1273;25153;-79
2024/01/25 07:37:12;;;;;;;5.70;1.90;;;;;;;4.16;80.00;96385.71;108871;1273;22535;-79
2024/01/25 07:39:46;;;;;;;8.80;1.70;;;;;;;4.19;79.78;96403.52;108882;1272;22525;-79
2024/01/25 07:42:20;;;;;;;5.20;1.70;;;;;;;4.20;79.73;96396.77;108916;1266;24155;-79
2024/01/25 07:44:51;;;;;;;4.00;1.20;;;;;;;4.24;79.42;96392.48;108855;1272;24202;-79
2024/01/25 07:47:25;;;;;;;6.60;1.40;;;;;;;4.32;78.83;96403.17;108888;1272;22503;-79
2024/01/25 07:49:57;;;;;;;9.60;2.00;;;;;;;4.39;78.40;96405.52;108890;1272;23996;-80
2024/01/25 07:52:31;;;;;;;6.10;1.50;;;;;;;4.47;77.47;96394.49;108931;1273;23768;-79
2024/01/25 07:55:11;;;;;;;8.30;1.90;;;;;;;4.51;77.33;96407.66;108920;1272;23689;-79
2024/01/25 07:57:42;;;;;;;5.10;1.80;;;;;;;4.49;77.53;96418.45;108886;1273;22682;-79
2024/01/25 08:00:14;;;;;;;7.20;2.20;;;;;;;4.48;77.40;96413.20;108919;1273;22527;-79
2024/01/25 08:02:45;;;;;;;6.60;2.00;;;;;;;4.50;77.38;96427.59;108895;1273;24203;-80
2024/01/25 08:05:17;;;;;;;8.10;1.90;;;;;;;4.50;76.99;96390.70;108904;1269;22556;-80
2024/01/25 08:07:49;;;;;;;7.70;2.00;;;;;;;4.49;77.17;96412.62;108869;1251;22703;-80
2024/01/25 08:10:21;;;;;;;3.50;1.10;;;;;;;4.45;77.41;96403.55;108840;1273;22533;-79
2024/01/25 08:12:58;;;;;;;6.40;2.30;;;;;;;4.40;77.67;96411.16;108851;1272;24030;-79
2024/01/25 08:15:32;;;;;;;6.00;1.80;;;;;;;4.36;77.74;96418.23;108880;1272;22521;-80
2024/01/25 08:18:05;;;;;;;7.90;2.20;;;;;;;4.33;78.49;96415.25;108886;1266;22523;-79
2024/01/25 08:20:41;;;;;;;5.30;1.40;;;;;;;4.28;79.04;96416.10;108833;1273;22849;-79
2024/01/25 08:23:15;;;;;;;9.80;3.00;;;;;;;4.24;79.53;96414.37;108839;1272;23503;-79
2024/01/25 08:25:50;;;;;;;8.60;2.00;;;;;;;4.19;80.02;96423.68;108885;1272;22562;-80
2024/01/25 08:28:23;;;;;;;3.10;1.50;;;;;;;4.10;80.50;96432.23;108876;1272;22642;-80
2024/01/25 08:31:00;;;;;;;6.70;1.70;;;;;;;4.02;80.70;96442.97;108928;1272;22616;-80
2024/01/25 08:33:36;;;;;;;6.60;1.70;;;;;;;3.98;81.57;96447.06;108936;1266;22523;-80
2024/01/25 08:36:09;;;;;;;8.60;2.30;;;;;;;3.91;81.97;96451.29;108925;1272;22927;-80
2024/01/25 08:38:43;;;;;;;4.10;1.90;;;;;;;3.84;82.08;96453.19;108879;1266;22520;-80
2024/01/25 08:41:18;;;;;;;5.00;1.90;;;;;;;3.77;83.90;96438.39;108839;1270;22513;-79
2024/01/25 08:43:52;;;;;;;7.00;2.10;;;;;;;3.67;84.43;96457.79;108862;1273;22844;-79
2024/01/25 08:46:24;;;;;;;9.10;1.70;;;;;;;3.60;84.06;96463.34;108924;1273;22521;-79
2024/01/25 08:48:55;;;;;;;6.00;2.10;;;;;;;3.56;84.42;96459.77;108900;1273;22496;-80
2024/01/25 08:51:31;;;;;;;7.80;2.10;;;;;;;3.52;84.66;96469.66;108841;1272;22521;-79
2024/01/25 08:54:03;;;;;;;6.00;1.40;;;;;;;3.46;85.69;96461.73;108883;1272;24957;-79
2024/01/25 08:56:34;;;;;;;7.20;2.40;;;;;;;3.39;86.22;96459.15;108873;1272;25291;-80
2024/01/25 08:59:07;;;;;;;7.40;1.90;;;;;;;3.35;85.90;96457.45;108893;1268;22517;-79
2024/01/25 09:01:40;;;;;;;6.20;2.00;;;;;;;3.33;86.07;96452.34;108901;1272;25888;-80
2024/01/25 09:04:14;;;;;;;7.40;2.20;;;;;;;3.32;86.92;96452.21;108919;1269;22517;-80
2024/01/25 09:06:45;;;;;;;4.60;1.90;;;;;;;3.32;88.07;96451.69;108918;1272;24231;-80
2024/01/25 09:09:20;;;;;;;6.60;1.90;;;;;;;3.33;88.48;96451.30;108922;1266;22562;-80
2024/01/25 09:11:59;;;;;;;7.40;2.00;;;;;;;3.32;88.31;96456.67;108873;1267;22533;-80
2024/01/25 09:14:36;;;;;;;5.00;2.40;;;;;;;3.33;88.30;96461.83;108865;1272;23443;-80
2024/01/25 09:17:13;;;;;;;9.00;1.90;;;;;;;3.35;88.49;96451.33;108907;1272;24909;-80
2024/01/25 09:19:47;;;;;;;7.70;3.20;;;;;;;3.35;88.66;96462.91;108916;1272;22532;-80
2024/01/25 09:22:21;;;;;;;6.10;1.80;;;;;;;3.35;88.49;96473.66;108867;1272;23861;-80
2024/01/25 09:24:54;;;;;;;6.80;1.90;;;;;;;3.36;89.55;96467.64;108891;1266;22999;-80
2024/01/25 09:27:26;;;;;;;7.90;2.10;;;;;;;3.32;89.64;96490.06;108941;1251;22634;-80
2024/01/25 09:29:57;;;;;;;4.90;1.90;;;;;;;3.29;90.72;96478.43;108911;1269;22661;-79
2024/01/25 09:32:30;;;;;;;5.50;1.80;;;;;;;3.27;90.97;96488.14;108894;1273;22520;-78
2024/01/25 09:35:03;;;;;;;3.50;1.70;;;;;;;3.26;91.52;96480.69;108907;1269;22524;-79
2024/01/25 09:37:34;;;;;;;10.30;3.10;;;;;;;3.27;91.58;96489.30;108907;1272;22784;-79
2024/01/25 09:40:11;;;;;;;11.40;2.50;;;;;;;3.27;91.69;96484.54;108890;1267;22524;-79
2024/01/25 09:42:43;;;;;;;4.90;2.10;;;;;;;3.27;92.31;96476.10;108910;1272;22777;-79
2024/01/25 09:45:20;;;;;;;6.50;2.50;;;;;;;3.27;91.89;96479.50;108912;1266;22517;-79
2024/01/25 09:47:54;;;;;;;3.20;1.00;;;;;;;3.26;92.31;96477.80;108906;1272;25897;-80
2024/01/25 09:50:33;;;;;;;8.60;2.60;;;;;;;3.25;92.02;96474.17;108855;1272;23024;-79
2024/01/25 09:53:08;;;;;;;5.80;1.90;;;;;;;3.27;92.11;96470.81;108882;1272;24190;-80
2024/01/25 09:55:44;;;;;;;9.20;3.00;;;;;;;3.29;92.23;96460.94;108857;1272;22548;-80
2024/01/25 09:58:20;;;;;;;8.00;2.70;;;;;;;3.33;92.44;96457.74;108890;1269;25002;-80
2024/01/25 10:00:55;;;;;;;8.70;2.70;;;;;;;3.38;92.83;96449.14;108825;1272;24340;-79
2024/01/25 10:03:26;;;;;;;7.50;2.30;;;;;;;3.42;92.52;96463.88;108875;1272;23852;-80
2024/01/25 10:06:00;;;;;;;6.00;2.50;;;;;;;3.41;92.16;96460.05;108878;1272;25405;-80
2024/01/25 10:08:32;;;;;;;8.30;2.70;;;;;;;3.38;92.23;96452.48;108903;1266;23806;-80
2024/01/25 10:11:05;;;;;;;9.40;2.00;;;;;;;3.38;92.06;96450.23;108907;1272;23317;-80
2024/01/25 10:13:48;;;;;;;8.80;3.10;;;;;;;3.37;91.91;96449.66;108915;1272;23022;-80
2024/01/25 10:16:22;;;;;;;5.90;2.20;;;;;;;3.39;92.09;96446.02;108916;1272;22542;-80
2024/01/25 10:18:54;;;;;;;9.90;3.50;;;;;;;3.46;92.19;96445.91;108826;1272;22852;-80
2024/01/25 10:21:27;;;;;;;10.20;2.50;;;;;;;3.54;91.89;96446.31;108917;1272;22528;-80
2024/01/25 10:23:59;;;;;;;7.30;2.40;;;;;;;3.62;91.83;96447.85;108972;1266;23882;-80
2024/01/25 10:26:31;;;;;;;10.20;3.50;;;;;;;3.65;91.55;96439.20;108883;1269;22542;-80
2024/01/25 10:29:05;;;;;;;8.00;3.20;;;;;;;3.69;91.18;96449.55;108877;1266;24151;-80
2024/01/25 10:31:43;;;;;;;8.70;3.00;;;;;;;3.71;91.06;96453.45;108886;1250;24289;-80
2024/01/25 10:34:17;;;;;;;8.30;3.00;;;;;;;3.77;90.47;96447.88;108879;1272;23982;-80
2024/01/25 10:36:54;;;;;;;6.50;2.40;;;;;;;3.78;89.93;96469.76;108859;1266;23422;-80
2024/01/25 10:39:36;;;;;;;11.90;4.00;;;;;;;3.76;89.84;96459.70;108851;1272;22838;-80
2024/01/25 10:42:09;;;;;;;8.80;3.10;;;;;;;3.77;89.70;96451.70;108903;1269;22521;-80
2024/01/25 10:44:42;;;;;;;8.60;2.90;;;;;;;3.76;89.65;96461.19;108931;1273;22517;-80
2024/01/25 10:47:14;;;;;;;9.60;3.30;;;;;;;3.75;89.18;96459.02;108894;1272;22518;-79
2024/01/25 10:49:49;;;;;;;12.10;2.90;;;;;;;3.72;89.30;96467.00;108869;1273;23711;-80
2024/01/25 10:52:21;;;;;;;12.50;3.70;;;;;;;3.71;89.31;96449.10;108831;1272;22538;-79
2024/01/25 10:54:56;;;;;;;10.90;3.70;;;;;;;3.71;89.14;96469.44;108888;1273;22556;-80
2024/01/25 10:57:38;;;;;;;11.20;3.70;;;;;;;3.69;89.09;96470.73;108934;1266;24400;-80
2024/01/25 11:00:14;;;;;;;9.70;3.50;;;;;;;3.67;89.23;96497.71;109002;1269;22655;-79
2024/01/25 11:02:49;;;;;;;8.50;2.90;;;;;;;3.67;89.17;96466.07;108964;1273;22546;-79
2024/01/25 11:05:23;;;;;;;8.60;2.60;;;;;;;3.65;89.08;96490.73;108916;1273;22587;-80
2024/01/25 11:07:57;;;;;;;15.50;5.00;;;;;;;3.59;89.19;96497.09;108950;1272;24205;-80
2024/01/25 11:10:29;;;;;;;11.20;3.50;;;;;;;3.54;89.66;96481.23;108965;1273;22524;-80
2024/01/25 11:13:03;;;;;;;8.10;2.70;;;;;;;3.55;89.41;96489.23;108943;1273;24288;-80
2024/01/25 11:15:39;;;;;;;10.30;3.60;;;;;;;3.56;89.40;96491.90;109043;1269;22539;-80
2024/01/25 11:18:13;;;;;;;7.70;2.50;;;;;;;3.53;89.43;96481.69;108939;1273;22576;-80
2024/01/25 11:20:47;;;;;;;12.20;3.20;;;;;;;3.50;89.33;96497.60;108973;1269;22531;-80
2024/01/25 11:23:24;;;;;;;12.20;3.50;;;;;;;3.47;89.43;96496.14;108984;1271;22888;-80
2024/01/25 11:26:00;;;;;;;6.60;2.00;;;;;;;3.46;89.38;96498.65;108962;1273;22524;-80
2024/01/25 11:28:33;;;;;;;7.10;3.30;;;;;;;3.45;89.49;96490.81;109014;1272;22531;-80
2024/01/25 11:31:06;;;;;;;9.50;4.10;;;;;;;3.48;89.64;96492.16;108995;1273;24038;-80
2024/01/25 11:33:38;;;;;;;11.20;3.50;;;;;;;3.48;89.68;96503.39;109015;1272;24199;-80
2024/01/25 11:36:10;;;;;;;9.90;3.00;;;;;;;3.48;89.78;96494.01;108980;1272;22541;-80
2024/01/25 11:38:44;;;;;;;12.10;3.00;;;;;;;3.48;89.74;96501.61;108972;1255;22553;-80
2024/01/25 11:41:15;;;;;;;7.50;2.70;;;;;;;3.45;89.81;96499.89;109039;1266;22471;-80
2024/01/25 11:43:51;;;;;;;12.00;3.20;;;;;;;3.40;89.81;96512.64;109017;1272;22645;-80
2024/01/25 11:46:26;;;;;;;11.10;2.80;;;;;;;3.37;89.91;96509.11;109016;1273;24215;-80
2024/01/25 11:48:58;;;;;;;9.80;2.50;;;;;;;3.36;90.00;96507.45;108946;1273;22538;-80
2024/01/25 11:51:32;;;;;;;9.00;4.00;;;;;;;3.34;90.14;96509.00;108931;1257;22563;-80
2024/01/25 11:54:06;;;;;;;8.20;2.20;;;;;;;3.34;90.48;96515.80;108927;1266;22635;-80
2024/01/25 11:56:42;;;;;;;6.80;1.90;;;;;;;3.37;90.33;96524.89;108872;1269;23860;-81
2024/01/25 11:59:14;;;;;;;8.40;2.70;;;;;;;3.41;90.28;96526.34;108888;1272;22567;-81